KJXI

Fox Stephens Field - Gilmer Municipal Airport

Gilmer, Texas, USA
METAR KJXI 222035Z AUTO 00000KT 10SM OVC003 18/05 A3016 RMK AO2 T01770050
Observed Flight Rules
Oct-22 @ 20:35 UTC (14 minutes ago) Instrument Flight Rules
Visibility Clouds
10 miles
  • Overcast at 300' AGL
Temperatures Readings
Current 18°C / 64°F
Dewpoint 5°C / 41°F
Humidity 43%
Altimeter 30.16" Hg
Pressure 1021 hPa
Elevation 127
METAR KJXI 222035Z AUTO 00000KT 10SM OVC003 18/05 A3016 RMK AO2 T01770050
Observed Flight Rules
Oct-22 @ 20:35 UTC
(14 minutes ago)
LIFR
Clouds
  • Overcast at 300' AGL
Temperature Dewpoint
18°C / 64°F 5°C / 41°F
Humidity Altimeter Pressure
43% 30.16" Hg 1021 hPa